createdAt,value
2018-09-19T00:02:09.122Z,20.09
2018-09-19T00:04:38.811Z,20.08
2018-09-19T00:07:08.401Z,20.06
2018-09-19T00:09:39.662Z,20.01
2018-09-19T00:12:08.019Z,20.01
2018-09-19T00:14:36.413Z,20.00
2018-09-19T00:17:04.758Z,19.93
2018-09-19T00:19:33.102Z,19.92
2018-09-19T00:22:01.495Z,19.90
2018-09-19T00:24:29.890Z,19.90
2018-09-19T00:26:58.208Z,19.89
2018-09-19T00:29:26.526Z,19.82
2018-09-19T00:31:54.898Z,19.83
2018-09-19T00:34:23.278Z,19.79
2018-09-19T00:36:51.653Z,19.68
2018-09-19T00:39:19.994Z,19.73
2018-09-19T00:41:48.358Z,19.72
2018-09-19T00:44:16.691Z,19.66
2018-09-19T00:46:45.060Z,19.62
2018-09-19T00:49:13.400Z,19.60
2018-09-19T00:51:41.736Z,19.56
2018-09-19T00:54:10.071Z,19.49
2018-09-19T00:56:38.407Z,19.45
2018-09-19T00:59:06.743Z,19.37
2018-09-19T01:01:35.135Z,19.34
2018-09-19T01:04:03.500Z,19.33
2018-09-19T01:06:31.898Z,19.32
2018-09-19T01:09:00.759Z,19.29
2018-09-19T01:11:29.106Z,19.28
2018-09-19T01:13:57.453Z,19.31
2018-09-19T01:16:25.798Z,19.32
2018-09-19T01:18:54.155Z,19.33
2018-09-19T01:21:22.507Z,19.34
2018-09-19T01:23:50.848Z,19.34
2018-09-19T01:26:19.199Z,19.39
2018-09-19T01:28:47.526Z,19.42
2018-09-19T01:31:15.861Z,19.42
2018-09-19T01:33:44.218Z,19.44
2018-09-19T01:36:12.540Z,19.54
2018-09-19T01:38:40.924Z,19.57
2018-09-19T01:41:09.287Z,19.66
2018-09-19T01:43:37.621Z,19.73
2018-09-19T01:46:07.168Z,19.75
2018-09-19T01:48:35.525Z,19.73
2018-09-19T01:51:03.872Z,19.79
2018-09-19T01:53:32.194Z,19.78
2018-09-19T01:56:00.546Z,19.79
2018-09-19T01:58:29.422Z,19.78
2018-09-19T02:00:57.772Z,19.75
2018-09-19T02:03:26.106Z,19.74
2018-09-19T02:05:54.443Z,19.75
2018-09-19T02:08:22.812Z,19.72
2018-09-19T02:10:51.157Z,19.72
2018-09-19T02:13:19.502Z,19.72
2018-09-19T02:15:47.851Z,19.71
2018-09-19T02:18:16.293Z,19.67
2018-09-19T02:20:44.657Z,19.68
2018-09-19T02:23:13.015Z,19.65
2018-09-19T02:25:41.355Z,19.61
2018-09-19T02:28:09.717Z,19.59
2018-09-19T02:30:38.090Z,19.59
2018-09-19T02:33:06.435Z,19.56
2018-09-19T02:35:34.770Z,19.53
2018-09-19T02:38:03.128Z,19.52
2018-09-19T02:40:31.459Z,19.49
2018-09-19T02:42:59.780Z,19.49
2018-09-19T02:45:28.103Z,19.50
2018-09-19T02:47:56.539Z,19.43
2018-09-19T02:50:24.916Z,19.47
2018-09-19T02:52:56.187Z,19.41
2018-09-19T02:55:25.389Z,19.45
2018-09-19T02:57:54.185Z,19.44
2018-09-19T03:00:22.556Z,19.38
2018-09-19T03:02:51.386Z,19.42
2018-09-19T03:05:19.943Z,19.36
2018-09-19T03:07:48.316Z,19.31
2018-09-19T03:10:16.661Z,19.33
2018-09-19T03:12:45.022Z,19.32
2018-09-19T03:15:13.387Z,19.34
2018-09-19T03:17:41.858Z,19.26
2018-09-19T03:20:10.251Z,19.29
2018-09-19T03:22:38.630Z,19.28
2018-09-19T03:25:07.007Z,19.25
2018-09-19T03:27:35.361Z,19.26
2018-09-19T03:30:03.718Z,19.20
2018-09-19T03:32:32.041Z,19.15
2018-09-19T03:35:00.420Z,19.17
2018-09-19T03:37:28.786Z,19.07
2018-09-19T03:39:57.115Z,19.03
2018-09-19T03:42:26.033Z,18.99
2018-09-19T03:44:54.389Z,18.97
2018-09-19T03:47:22.747Z,19.00
2018-09-19T03:49:51.882Z,18.96
2018-09-19T03:52:20.236Z,18.95
2018-09-19T03:54:48.614Z,18.88
2018-09-19T03:57:16.987Z,18.90
2018-09-19T03:59:45.305Z,18.89
2018-09-19T04:02:13.693Z,18.77
2018-09-19T04:04:42.079Z,18.71
2018-09-19T04:07:10.430Z,18.70
2018-09-19T04:09:38.808Z,18.66
2018-09-19T04:12:07.212Z,18.49
2018-09-19T04:14:35.587Z,18.49
2018-09-19T04:17:03.963Z,18.45
2018-09-19T04:19:32.306Z,18.46
2018-09-19T04:22:00.631Z,18.43
2018-09-19T04:24:28.989Z,18.44
2018-09-19T04:26:57.339Z,18.48
2018-09-19T04:29:25.689Z,18.45
2018-09-19T04:31:54.058Z,18.46
2018-09-19T04:34:22.405Z,18.40
2018-09-19T04:36:51.138Z,18.39
2018-09-19T04:39:19.474Z,18.36
2018-09-19T04:41:47.837Z,18.31
2018-09-19T04:44:16.243Z,18.24
2018-09-19T04:46:44.575Z,18.16
2018-09-19T04:49:12.907Z,18.22
2018-09-19T04:51:41.355Z,18.19
2018-09-19T04:54:09.840Z,18.20
2018-09-19T04:56:38.647Z,18.20
2018-09-19T04:59:06.987Z,18.16
2018-09-19T05:01:35.319Z,18.20
2018-09-19T05:04:03.653Z,18.13
2018-09-19T05:06:32.013Z,18.17
2018-09-19T05:09:00.368Z,18.11
2018-09-19T05:11:28.739Z,18.13
2018-09-19T05:13:57.079Z,18.06
2018-09-19T05:16:25.465Z,18.08
2018-09-19T05:18:53.800Z,18.08
2018-09-19T05:21:22.145Z,17.93
2018-09-19T05:23:50.509Z,18.05
2018-09-19T05:26:19.102Z,18.05
2018-09-19T05:28:47.457Z,18.09
2018-09-19T05:31:15.811Z,18.08
2018-09-19T05:33:44.321Z,18.09
2018-09-19T05:36:12.625Z,18.09
2018-09-19T05:38:40.969Z,18.12
2018-09-19T05:41:09.657Z,17.96
2018-09-19T05:43:38.015Z,18.04
2018-09-19T05:46:06.620Z,18.17
2018-09-19T05:48:35.592Z,18.24
2018-09-19T05:51:03.942Z,18.29
2018-09-19T05:53:32.293Z,18.33
2018-09-19T05:56:00.739Z,18.41
2018-09-19T05:58:29.079Z,18.48
2018-09-19T06:00:57.458Z,18.66
2018-09-19T06:03:25.792Z,18.72
2018-09-19T06:05:54.144Z,18.80
2018-09-19T06:08:22.491Z,18.92
2018-09-19T06:10:50.859Z,19.01
2018-09-19T06:13:19.226Z,19.15
2018-09-19T06:15:48.175Z,19.31
2018-09-19T06:18:16.524Z,19.48
2018-09-19T06:20:44.899Z,19.61
2018-09-19T06:23:13.252Z,19.64
2018-09-19T06:25:41.596Z,19.85
2018-09-19T06:28:09.966Z,19.99
2018-09-19T06:30:38.313Z,20.14
2018-09-19T06:33:06.827Z,20.40
2018-09-19T06:35:35.165Z,20.43
2018-09-19T06:38:03.520Z,20.39
2018-09-19T06:40:31.907Z,20.33
2018-09-19T06:43:00.551Z,20.44
2018-09-19T06:45:28.909Z,20.54
2018-09-19T06:47:57.303Z,20.80
2018-09-19T06:50:25.700Z,21.12
2018-09-19T06:52:54.051Z,21.18
2018-09-19T06:55:22.375Z,21.32
2018-09-19T06:57:51.138Z,21.50
2018-09-19T07:00:19.529Z,21.48
2018-09-19T07:02:47.996Z,21.65
2018-09-19T07:05:16.335Z,21.96
2018-09-19T07:07:44.726Z,21.97
2018-09-19T07:10:13.060Z,22.09
2018-09-19T07:12:41.434Z,22.35
2018-09-19T07:15:09.784Z,22.67
2018-09-19T07:17:38.140Z,22.88
2018-09-19T07:20:06.655Z,23.03
2018-09-19T07:22:34.988Z,23.32
2018-09-19T07:25:03.412Z,23.57
2018-09-19T07:27:31.784Z,24.12
2018-09-19T07:30:00.130Z,24.46
2018-09-19T07:32:28.510Z,24.70
2018-09-19T07:34:56.857Z,24.67
2018-09-19T07:37:25.199Z,24.35
2018-09-19T07:39:53.545Z,24.33
2018-09-19T07:42:21.927Z,24.42
2018-09-19T07:44:50.258Z,24.33
2018-09-19T07:47:18.597Z,24.34
2018-09-19T07:49:47.095Z,24.41
2018-09-19T07:52:28.712Z,24.22
2018-09-19T07:54:57.315Z,24.22
2018-09-19T07:57:29.499Z,24.37
2018-09-19T07:59:57.899Z,24.21
2018-09-19T08:02:26.267Z,24.36
2018-09-19T08:04:55.321Z,24.63
2018-09-19T08:07:23.756Z,24.56
2018-09-19T08:09:52.118Z,24.67
2018-09-19T08:12:20.560Z,24.81
2018-09-19T08:14:49.040Z,25.18
2018-09-19T08:17:17.404Z,25.18
2018-09-19T08:19:45.756Z,25.23
2018-09-19T08:22:14.121Z,25.40
2018-09-19T08:24:42.559Z,25.80
2018-09-19T08:27:10.927Z,26.08
2018-09-19T08:29:39.305Z,26.07
2018-09-19T08:32:07.638Z,25.73
2018-09-19T08:34:36.152Z,26.16
2018-09-19T08:37:04.569Z,26.20
2018-09-19T08:39:33.113Z,26.80
2018-09-19T08:42:01.565Z,26.99
2018-09-19T08:44:29.905Z,26.72
2018-09-19T08:46:58.288Z,26.67
2018-09-19T08:49:26.677Z,26.66
2018-09-19T08:51:55.025Z,26.94
2018-09-19T08:54:23.410Z,27.55
2018-09-19T08:56:51.819Z,27.38
2018-09-19T08:59:20.227Z,27.62
2018-09-19T09:01:48.865Z,27.39
2018-09-19T09:04:17.236Z,27.96
2018-09-19T09:06:45.689Z,28.68
2018-09-19T09:09:14.010Z,28.81
2018-09-19T09:11:42.389Z,28.67
2018-09-19T09:14:10.794Z,29.00
2018-09-19T09:16:39.175Z,29.53
2018-09-19T09:19:07.552Z,29.41
2018-09-19T09:21:35.948Z,29.88
2018-09-19T09:24:04.311Z,29.25
2018-09-19T09:26:32.676Z,29.12
2018-09-19T09:29:01.029Z,29.82
2018-09-19T09:31:29.376Z,29.86
2018-09-19T09:33:57.860Z,30.02
2018-09-19T09:36:26.308Z,30.13
2018-09-19T09:38:56.297Z,29.84
2018-09-19T09:41:24.672Z,30.56
2018-09-19T09:43:53.020Z,30.29
2018-09-19T09:46:21.402Z,30.56
2018-09-19T09:48:49.762Z,30.97
2018-09-19T09:51:18.145Z,30.94
2018-09-19T09:53:46.500Z,30.63
2018-09-19T09:56:14.847Z,31.02
2018-09-19T09:58:44.211Z,30.77
2018-09-19T10:01:12.629Z,31.60
2018-09-19T10:03:41.006Z,31.51
2018-09-19T10:06:09.382Z,31.34
2018-09-19T10:08:37.847Z,31.76
2018-09-19T10:11:06.804Z,31.60
2018-09-19T10:13:35.224Z,31.60
2018-09-19T10:16:03.585Z,33.42
2018-09-19T10:18:32.028Z,34.00
2018-09-19T10:21:00.385Z,34.76
2018-09-19T10:23:28.779Z,33.94
2018-09-19T10:25:57.156Z,35.17
2018-09-19T10:28:25.532Z,35.31
2018-09-19T10:30:53.925Z,35.95
2018-09-19T10:33:22.267Z,35.95
2018-09-19T10:35:50.640Z,35.21
2018-09-19T10:38:19.579Z,36.90
2018-09-19T10:40:47.923Z,35.52
2018-09-19T10:43:16.323Z,36.25
2018-09-19T10:45:44.690Z,37.95
2018-09-19T10:48:13.083Z,36.14
2018-09-19T10:50:41.467Z,35.61
2018-09-19T10:53:09.860Z,35.93
2018-09-19T10:55:38.247Z,35.70
2018-09-19T10:58:06.610Z,34.59
2018-09-19T11:00:34.975Z,33.70
2018-09-19T11:03:03.326Z,32.66
2018-09-19T11:05:31.776Z,32.83
2018-09-19T11:08:00.159Z,31.54
2018-09-19T11:10:28.509Z,31.12
2018-09-19T11:12:56.884Z,30.79
2018-09-19T11:15:25.792Z,30.63
2018-09-19T11:17:54.110Z,30.28
2018-09-19T11:20:22.470Z,29.48
2018-09-19T11:22:50.797Z,29.86
2018-09-19T11:25:19.156Z,30.31
2018-09-19T11:27:47.505Z,30.13
2018-09-19T11:30:15.849Z,29.95
2018-09-19T11:32:44.189Z,29.78
2018-09-19T11:35:12.580Z,29.59
2018-09-19T11:37:40.971Z,29.26
2018-09-19T11:40:09.398Z,29.31
2018-09-19T11:42:37.748Z,28.90
2018-09-19T11:45:06.125Z,28.75
2018-09-19T11:47:34.536Z,28.68
2018-09-19T11:50:02.879Z,28.77
2018-09-19T11:52:31.231Z,28.89
2018-09-19T11:54:59.566Z,28.58
2018-09-19T11:57:27.947Z,28.54
2018-09-19T11:59:56.290Z,28.39
2018-09-19T12:02:24.680Z,28.21
2018-09-19T12:04:53.050Z,28.40
2018-09-19T12:07:21.448Z,28.39
2018-09-19T12:09:49.810Z,28.33
2018-09-19T12:12:18.160Z,28.26
2018-09-19T12:14:46.517Z,28.29
2018-09-19T12:17:14.923Z,28.24
2018-09-19T12:19:43.586Z,28.29
2018-09-19T12:22:11.950Z,28.24
2018-09-19T12:24:40.328Z,28.26
2018-09-19T12:27:08.705Z,28.17
2018-09-19T12:29:37.060Z,28.16
2018-09-19T12:32:06.144Z,28.09
2018-09-19T12:34:35.452Z,28.12
2018-09-19T12:37:03.961Z,28.09
2018-09-19T12:39:32.329Z,28.06
2018-09-19T12:42:00.650Z,28.17
2018-09-19T12:44:28.996Z,28.00
2018-09-19T12:46:57.348Z,28.10
2018-09-19T12:49:25.739Z,28.08
2018-09-19T12:51:54.132Z,28.03
2018-09-19T12:54:22.483Z,28.01
2018-09-19T12:56:50.828Z,28.02
2018-09-19T12:59:19.317Z,28.03
2018-09-19T13:01:47.700Z,27.97
2018-09-19T13:04:16.684Z,28.00
2018-09-19T13:06:45.065Z,28.00
2018-09-19T13:09:13.443Z,27.98
2018-09-19T13:11:41.933Z,27.95
2018-09-19T13:14:10.348Z,27.91
2018-09-19T13:16:38.820Z,27.92
2018-09-19T13:19:07.192Z,27.96
2018-09-19T13:21:35.605Z,27.92
2018-09-19T13:24:03.986Z,27.95
2018-09-19T13:26:32.367Z,27.88
2018-09-19T13:29:00.817Z,27.80
2018-09-19T13:31:29.256Z,27.90
2018-09-19T13:33:57.663Z,27.85
2018-09-19T13:36:27.656Z,27.84
2018-09-19T13:38:56.484Z,27.82
2018-09-19T13:41:24.962Z,27.77
2018-09-19T13:43:53.341Z,27.85
2018-09-19T13:46:21.834Z,27.70
2018-09-19T13:48:54.698Z,27.76
2018-09-19T13:51:24.794Z,27.71
2018-09-19T13:53:53.377Z,27.66
2018-09-19T13:56:22.075Z,27.64
2018-09-19T13:58:50.608Z,27.66
2018-09-19T14:01:19.018Z,27.63
2018-09-19T14:03:47.393Z,27.66
2018-09-19T14:06:15.753Z,27.63
2018-09-19T14:08:44.251Z,27.55
2018-09-19T14:11:12.640Z,27.60
2018-09-19T14:13:41.019Z,27.66
2018-09-19T14:16:09.588Z,27.59
2018-09-19T14:18:37.992Z,27.62
2018-09-19T14:21:06.370Z,27.55
2018-09-19T14:23:34.749Z,27.66
2018-09-19T14:26:03.147Z,27.58
2018-09-19T14:28:31.589Z,27.61
2018-09-19T14:30:59.953Z,27.62
2018-09-19T14:33:28.359Z,27.49
2018-09-19T14:35:56.793Z,27.49
2018-09-19T14:38:25.327Z,27.46
2018-09-19T14:40:54.558Z,27.54
2018-09-19T14:43:22.911Z,27.46
2018-09-19T14:45:51.263Z,27.47
2018-09-19T14:48:19.667Z,27.41
2018-09-19T14:50:48.052Z,27.37
2018-09-19T14:53:16.474Z,27.31
2018-09-19T14:55:44.838Z,27.33
2018-09-19T14:58:13.197Z,27.32
2018-09-19T15:00:41.564Z,27.30
2018-09-19T15:03:10.646Z,27.29
2018-09-19T15:05:38.968Z,27.24
2018-09-19T15:08:07.343Z,27.24
2018-09-19T15:10:35.689Z,27.28
2018-09-19T15:13:04.109Z,27.29
2018-09-19T15:15:33.030Z,27.29
2018-09-19T15:18:01.418Z,27.40
2018-09-19T15:20:29.816Z,27.30
2018-09-19T15:22:58.187Z,27.34
2018-09-19T15:25:26.550Z,27.39
2018-09-19T15:27:54.890Z,27.27
2018-09-19T15:30:23.253Z,27.21
2018-09-19T15:32:51.603Z,27.23
2018-09-19T15:35:19.964Z,27.19
2018-09-19T15:37:48.310Z,27.14
2018-09-19T15:40:16.648Z,27.16
2018-09-19T15:42:45.049Z,27.19
2018-09-19T15:45:13.442Z,27.12
2018-09-19T15:47:41.850Z,27.08
2018-09-19T15:50:10.251Z,27.06
2018-09-19T15:52:38.748Z,27.06
2018-09-19T15:55:07.649Z,27.03
2018-09-19T15:57:36.140Z,26.88
2018-09-19T16:00:04.881Z,26.89
2018-09-19T16:02:33.272Z,26.90
2018-09-19T16:05:01.672Z,26.85
2018-09-19T16:07:30.251Z,26.80
2018-09-19T16:09:58.672Z,26.80
2018-09-19T16:12:27.050Z,26.74
2018-09-19T16:14:55.650Z,26.72
2018-09-19T16:17:24.008Z,26.73
2018-09-19T16:19:52.424Z,26.66
2018-09-19T16:22:21.370Z,26.61
2018-09-19T16:24:49.932Z,26.56
2018-09-19T16:27:18.298Z,26.59
2018-09-19T16:29:46.949Z,26.50
2018-09-19T16:32:15.282Z,26.47
2018-09-19T16:34:43.621Z,26.43
2018-09-19T16:37:11.954Z,26.37
2018-09-19T16:39:40.453Z,26.32
2018-09-19T16:42:08.834Z,26.27
2018-09-19T16:44:37.348Z,26.22
2018-09-19T16:47:06.151Z,26.19
2018-09-19T16:49:34.527Z,26.10
2018-09-19T16:52:02.931Z,26.05
2018-09-19T16:54:31.701Z,25.99
2018-09-19T16:57:00.161Z,25.97
2018-09-19T16:59:28.576Z,25.88
2018-09-19T17:01:57.016Z,25.84
2018-09-19T17:04:25.495Z,25.80
2018-09-19T17:06:53.880Z,25.72
2018-09-19T17:09:22.364Z,25.66
2018-09-19T17:11:50.713Z,25.58
2018-09-19T17:14:19.070Z,25.56
2018-09-19T17:16:47.469Z,25.49
2018-09-19T17:19:15.945Z,25.40
2018-09-19T17:21:44.298Z,25.35
2018-09-19T17:24:13.580Z,25.30
2018-09-19T17:26:42.143Z,25.17
2018-09-19T17:29:10.553Z,25.13
2018-09-19T17:31:38.936Z,25.03
2018-09-19T17:34:07.303Z,24.98
2018-09-19T17:36:35.863Z,24.92
2018-09-19T17:39:06.523Z,24.86
2018-09-19T17:41:34.879Z,24.80
2018-09-19T17:44:04.283Z,24.74
2018-09-19T17:46:32.686Z,24.72
2018-09-19T17:49:01.216Z,24.63
2018-09-19T17:51:29.591Z,24.62
2018-09-19T17:53:57.935Z,24.56
2018-09-19T17:56:26.375Z,24.49
2018-09-19T17:58:54.969Z,24.44
2018-09-19T18:01:23.320Z,24.45
2018-09-19T18:03:51.667Z,24.43
2018-09-19T18:06:20.127Z,24.39
2018-09-19T18:08:48.465Z,24.38
2018-09-19T18:11:16.786Z,24.32
2018-09-19T18:13:45.203Z,24.27
2018-09-19T18:16:13.580Z,24.25
2018-09-19T18:18:42.200Z,24.20
2018-09-19T18:21:11.373Z,24.23
2018-09-19T18:23:39.722Z,24.16
2018-09-19T18:26:08.152Z,24.28
2018-09-19T18:28:36.508Z,24.24
2018-09-19T18:31:04.940Z,24.28
2018-09-19T18:33:33.352Z,24.19
2018-09-19T18:36:01.699Z,24.18
2018-09-19T18:38:30.091Z,24.15
2018-09-19T18:40:58.447Z,24.13
2018-09-19T18:43:26.794Z,24.20
2018-09-19T18:45:55.155Z,24.15
2018-09-19T18:48:23.537Z,24.19
2018-09-19T18:50:51.916Z,24.18
2018-09-19T18:53:20.534Z,24.14
2018-09-19T18:55:48.956Z,24.10
2018-09-19T18:58:17.305Z,24.11
2018-09-19T19:10:44.872Z,24.11
2018-09-19T19:13:13.272Z,23.91
2018-09-19T19:15:41.615Z,23.90
2018-09-19T19:18:10.039Z,23.85
2018-09-19T19:20:38.456Z,23.83
2018-09-19T19:23:06.898Z,23.80
2018-09-19T19:25:35.240Z,23.80
2018-09-19T19:28:03.608Z,23.75
2018-09-19T19:30:32.137Z,23.75
2018-09-19T19:34:29.590Z,23.73
2018-09-19T19:36:58.595Z,23.70
2018-09-19T19:39:27.034Z,23.67
2018-09-19T19:41:55.411Z,23.66
2018-09-19T19:44:23.759Z,23.62
2018-09-19T19:46:52.163Z,23.62
2018-09-19T19:49:20.522Z,23.57
2018-09-19T19:51:48.880Z,23.56
2018-09-19T19:54:17.246Z,23.51
2018-09-19T19:56:45.678Z,23.49
2018-09-19T19:59:14.273Z,23.45
2018-09-19T20:01:42.619Z,23.44
2018-09-19T20:04:10.950Z,23.41
2018-09-19T20:06:39.321Z,23.39
2018-09-19T20:09:08.940Z,23.37
2018-09-19T20:11:37.702Z,23.31
2018-09-19T20:14:07.004Z,23.25
2018-09-19T20:16:35.407Z,23.25
2018-09-19T20:19:03.881Z,23.17
2018-09-19T20:21:32.280Z,23.08
2018-09-19T20:24:00.660Z,23.12
2018-09-19T20:26:29.013Z,23.07
2018-09-19T20:28:57.398Z,23.02
2018-09-19T20:31:25.844Z,23.00
2018-09-19T20:33:54.212Z,23.01
2018-09-19T20:36:22.555Z,22.97
2018-09-19T20:38:50.970Z,22.91
2018-09-19T20:41:19.453Z,22.86
2018-09-19T20:43:47.784Z,22.84
2018-09-19T20:46:16.681Z,22.79
2018-09-19T20:48:45.003Z,22.72
2018-09-19T20:51:13.500Z,22.70
2018-09-19T20:53:41.872Z,22.58
2018-09-19T20:56:10.207Z,22.64
2018-09-19T20:58:38.751Z,22.61
2018-09-19T21:01:07.304Z,22.62
2018-09-19T21:03:35.653Z,22.54
2018-09-19T21:06:04.072Z,22.49
2018-09-19T21:08:32.651Z,22.48
2018-09-19T21:11:01.151Z,22.45
2018-09-19T21:13:29.547Z,22.43
2018-09-19T21:15:57.917Z,22.41
2018-09-19T21:18:26.268Z,22.38
2018-09-19T21:20:54.677Z,22.35
2018-09-19T21:23:23.109Z,22.31
2018-09-19T21:25:51.430Z,22.21
2018-09-19T21:28:19.836Z,22.16
2018-09-19T21:30:48.178Z,22.19
2018-09-19T21:33:16.668Z,22.17
2018-09-19T21:35:45.109Z,22.14
2018-09-19T21:38:13.519Z,22.09
2018-09-19T21:40:41.919Z,22.09
2018-09-19T21:43:13.331Z,22.07
2018-09-19T21:45:41.713Z,22.06
2018-09-19T21:48:10.134Z,22.04
2018-09-19T21:50:42.689Z,22.00
2018-09-19T21:55:40.733Z,21.94
2018-09-19T21:58:09.176Z,21.94
2018-09-19T22:00:38.379Z,21.91
2018-09-19T22:03:11.980Z,21.90
2018-09-19T22:06:18.405Z,21.84
2018-09-19T22:08:46.759Z,21.78
2018-09-19T22:11:15.136Z,21.81
2018-09-19T22:13:43.489Z,21.77
2018-09-19T22:16:19.320Z,21.74
2018-09-19T22:18:48.465Z,21.73
2018-09-19T22:24:30.997Z,21.64
2018-09-19T22:27:00.970Z,21.62
2018-09-19T22:32:23.554Z,21.57
2018-09-19T22:34:52.848Z,21.53
2018-09-19T22:37:22.091Z,21.49
2018-09-19T22:39:51.170Z,21.50
2018-09-19T22:42:20.454Z,21.49
2018-09-19T22:44:51.568Z,21.47
2018-09-19T22:47:20.858Z,21.46
2018-09-19T22:49:51.427Z,21.40
2018-09-19T22:52:20.590Z,21.36
2018-09-19T22:54:49.877Z,21.34
2018-09-19T22:57:19.128Z,21.26
2018-09-19T22:59:48.871Z,21.29
2018-09-19T23:02:19.946Z,21.25
2018-09-19T23:04:50.703Z,21.26
2018-09-19T23:07:20.096Z,21.21
2018-09-19T23:09:50.000Z,21.20
2018-09-19T23:12:20.688Z,21.20
2018-09-19T23:14:51.599Z,21.20
2018-09-19T23:17:21.757Z,21.17
2018-09-19T23:19:52.714Z,21.15
2018-09-19T23:22:21.947Z,21.13
2018-09-19T23:24:51.867Z,21.10
2018-09-19T23:27:21.652Z,21.09
2018-09-19T23:29:51.800Z,21.05
2018-09-19T23:32:22.784Z,21.03
2018-09-19T23:34:52.898Z,21.03
2018-09-19T23:37:23.152Z,21.02
2018-09-19T23:39:53.165Z,20.98
2018-09-19T23:42:24.167Z,20.95
2018-09-19T23:44:54.144Z,20.90
2018-09-19T23:47:24.238Z,20.92
2018-09-19T23:49:54.527Z,20.90
2018-09-19T23:52:25.556Z,20.84
2018-09-19T23:54:55.967Z,20.85
2018-09-19T23:57:26.199Z,20.82
2018-09-19T23:59:57.018Z,20.84
